Time;durP1;ratioP1;P1;durP2;ratioP2;P2;SDS_P1;SDS_P2;PMS_P1;PMS_P2;Temp;Humidity;BMP_temperature;BMP_pressure;BME280_temperature;BME280_humidity;BME280_pressure;Samples;Min_cycle;Max_cycle;Signal;HPM_P1;HPM_P2
2022/04/19 00:01:55;;;;;;;23.60;21.70;;;4.40;99.90;;;;;;4988060;28;20502;-75
2022/04/19 00:04:22;;;;;;;23.63;21.25;;;4.60;99.90;;;;;;5006898;28;20085;-75
2022/04/19 00:06:48;;;;;;;23.40;21.50;;;4.70;99.90;;;;;;5004503;28;20049;-75
2022/04/19 00:09:17;;;;;;;24.92;22.80;;;4.50;99.90;;;;;;4995282;28;20123;-75
2022/04/19 00:11:44;;;;;;;23.33;21.63;;;4.40;99.90;;;;;;5006358;28;20530;-75
2022/04/19 00:14:10;;;;;;;23.80;21.80;;;4.30;99.90;;;;;;4989521;28;20066;-75
2022/04/19 00:16:38;;;;;;;23.88;22.08;;;4.20;99.90;;;;;;4987403;28;20117;-75
2022/04/19 00:19:06;;;;;;;24.00;22.10;;;4.00;99.90;;;;;;4988937;28;20058;-75
2022/04/19 00:21:33;;;;;;;23.58;21.80;;;3.80;99.90;;;;;;5006319;28;20077;-76
2022/04/19 00:23:59;;;;;;;24.35;22.45;;;3.90;99.90;;;;;;5006787;28;20495;-75
2022/04/19 00:26:26;;;;;;;24.00;22.00;;;4.00;99.90;;;;;;5006359;28;20140;-75
2022/04/19 00:28:53;;;;;;;25.30;22.10;;;4.00;99.90;;;;;;5003503;28;20084;-75
2022/04/19 00:31:20;;;;;;;23.40;21.45;;;3.80;99.90;;;;;;4988267;28;20081;-75
2022/04/19 00:33:47;;;;;;;24.90;22.65;;;3.80;99.90;;;;;;5006290;28;20414;-75
2022/04/19 00:36:14;;;;;;;25.15;22.85;;;3.70;99.90;;;;;;5005529;28;20042;-75
2022/04/19 00:38:41;;;;;;;24.40;22.30;;;3.60;99.90;;;;;;5006013;28;20069;-75
2022/04/19 00:41:08;;;;;;;23.08;21.27;;;3.80;99.90;;;;;;4986678;28;20057;-75
2022/04/19 00:43:35;;;;;;;24.27;22.20;;;4.00;99.90;;;;;;4989250;28;20620;-74
2022/04/19 00:46:02;;;;;;;23.35;21.05;;;4.00;99.90;;;;;;4989312;28;20070;-75
2022/04/19 00:48:29;;;;;;;24.50;22.50;;;4.00;99.90;;;;;;5006986;28;20081;-75
2022/04/19 00:50:56;;;;;;;28.63;25.63;;;4.00;99.90;;;;;;5006755;28;20152;-75
2022/04/19 00:53:27;;;;;;;29.27;26.42;;;3.90;99.90;;;;;;5006063;28;20041;-75
2022/04/19 00:55:59;;;;;;;25.90;23.75;;;3.70;99.90;;;;;;4987012;28;20052;-75
2022/04/19 00:58:26;;;;;;;26.73;24.42;;;3.60;99.90;;;;;;4996077;28;20053;-75
2022/04/19 01:00:54;;;;;;;26.73;24.38;;;3.50;99.90;;;;;;4987412;28;20132;-75
2022/04/19 01:03:22;;;;;;;26.92;24.73;;;3.50;99.90;;;;;;4972276;28;20060;-75
2022/04/19 01:05:53;;;;;;;27.77;25.02;;;3.60;99.90;;;;;;4987298;28;20396;-75
2022/04/19 01:08:20;;;;;;;26.63;24.30;;;3.60;99.90;;;;;;4986139;28;20049;-75
2022/04/19 01:10:48;;;;;;;26.98;24.30;;;3.40;99.90;;;;;;4987020;28;20153;-75
2022/04/19 01:13:35;;;;;;;29.55;26.40;;;3.30;99.90;;;;;;5006109;28;20138;-75
2022/04/19 01:16:03;;;;;;;28.75;25.98;;;3.20;99.90;;;;;;4988056;28;20096;-75
2022/04/19 01:18:30;;;;;;;26.88;24.42;;;3.20;99.90;;;;;;4988128;28;20084;-75
2022/04/19 01:21:04;;;;;;;25.52;23.23;;;3.20;99.90;;;;;;5003120;28;20076;-75
2022/04/19 01:23:30;;;;;;;24.83;22.75;;;3.20;99.90;;;;;;5005013;28;20112;-75
2022/04/19 01:25:58;;;;;;;23.85;21.95;;;3.20;99.90;;;;;;5003607;28;20065;-75
2022/04/19 01:28:25;;;;;;;24.67;22.58;;;3.10;99.90;;;;;;4996290;28;20495;-75
2022/04/19 01:30:54;;;;;;;26.13;23.85;;;3.10;99.90;;;;;;4993472;28;20641;-75
2022/04/19 01:33:23;;;;;;;25.92;23.40;;;3.10;99.90;;;;;;4975964;28;20146;-75
2022/04/19 01:35:50;;;;;;;25.00;22.85;;;3.10;99.90;;;;;;4986098;28;20327;-75
2022/04/19 01:38:17;;;;;;;24.77;22.67;;;3.00;99.90;;;;;;4996039;28;20058;-75
2022/04/19 01:40:45;;;;;;;25.52;23.35;;;3.10;99.90;;;;;;4998957;28;20069;-75
2022/04/19 01:43:23;;;;;;;26.75;24.35;;;3.00;99.90;;;;;;5004247;28;20048;-75
2022/04/19 01:45:55;;;;;;;27.70;24.95;;;3.00;99.90;;;;;;4987440;28;20057;-75
2022/04/19 01:48:23;;;;;;;27.10;24.55;;;3.00;99.90;;;;;;4997382;28;20060;-76
2022/04/19 01:50:52;;;;;;;26.08;23.95;;;3.10;99.90;;;;;;5006601;28;20124;-75
2022/04/19 01:53:19;;;;;;;26.15;23.67;;;3.00;99.90;;;;;;4998722;28;20116;-75
2022/04/19 01:55:46;;;;;;;25.92;23.70;;;3.10;99.90;;;;;;4987976;28;20559;-75
2022/04/19 01:58:32;;;;;;;25.05;22.92;;;3.30;99.90;;;;;;5002056;28;20084;-75
2022/04/19 02:01:01;;;;;;;25.20;23.00;;;3.10;99.90;;;;;;5002895;28;20088;-75
2022/04/19 02:03:28;;;;;;;24.45;22.30;;;3.00;99.90;;;;;;4987887;28;20045;-75
2022/04/19 02:05:56;;;;;;;26.27;23.77;;;2.90;99.90;;;;;;5003393;28;20050;-75
2022/04/19 02:08:24;;;;;;;25.83;23.73;;;2.90;99.90;;;;;;4993308;28;20042;-76
2022/04/19 02:10:51;;;;;;;26.33;23.92;;;2.80;99.90;;;;;;5002605;28;20105;-75
2022/04/19 02:13:20;;;;;;;26.52;24.23;;;2.80;99.90;;;;;;4987326;28;20092;-75
2022/04/19 02:16:06;;;;;;;25.67;23.48;;;2.80;99.90;;;;;;4985427;28;20113;-74
2022/04/19 02:18:33;;;;;;;26.98;24.63;;;2.70;99.90;;;;;;5003326;28;20189;-75
2022/04/19 02:21:00;;;;;;;25.10;23.00;;;2.60;99.90;;;;;;5005496;28;20092;-75
2022/04/19 02:23:27;;;;;;;24.30;22.33;;;2.60;99.90;;;;;;4990927;28;20053;-75
2022/04/19 02:25:55;;;;;;;24.85;22.73;;;2.60;99.90;;;;;;5006691;28;20119;-75
2022/04/19 02:28:22;;;;;;;24.85;22.80;;;2.60;99.90;;;;;;5006577;28;20354;-75
2022/04/19 02:31:13;;;;;;;24.38;22.35;;;2.60;99.90;;;;;;4989203;28;20054;-75
2022/04/19 02:33:48;;;;;;;25.27;23.00;;;2.60;99.90;;;;;;4993391;28;20056;-75
2022/04/19 02:36:17;;;;;;;26.10;23.63;;;2.60;99.90;;;;;;4989412;28;20056;-75
2022/04/19 02:38:45;;;;;;;24.38;22.38;;;2.70;99.90;;;;;;4998111;28;20065;-75
2022/04/19 02:41:11;;;;;;;25.00;22.75;;;2.80;99.90;;;;;;5005201;28;20049;-75
2022/04/19 02:43:40;;;;;;;24.23;22.15;;;2.90;99.90;;;;;;5007843;28;20068;-75
2022/04/19 02:46:07;;;;;;;24.05;22.13;;;2.90;99.90;;;;;;5006809;28;20115;-75
2022/04/19 02:48:39;;;;;;;24.38;22.10;;;3.10;99.90;;;;;;5006761;28;20491;-75
2022/04/19 02:51:05;;;;;;;25.25;23.15;;;3.10;99.90;;;;;;4989886;28;20103;-75
2022/04/19 02:53:32;;;;;;;24.58;22.45;;;2.90;99.90;;;;;;5007252;28;20060;-75
2022/04/19 02:55:59;;;;;;;24.48;22.52;;;2.80;99.90;;;;;;5005721;28;20100;-75
2022/04/19 02:58:27;;;;;;;24.80;22.60;;;2.80;99.90;;;;;;5013223;28;20132;-75
2022/04/19 03:00:55;;;;;;;24.10;22.10;;;2.80;99.90;;;;;;5005752;28;20050;-75
2022/04/19 03:03:22;;;;;;;23.90;22.00;;;2.80;99.90;;;;;;4992697;28;20121;-75
2022/04/19 03:05:52;;;;;;;25.30;23.20;;;2.70;99.90;;;;;;4990218;28;20045;-75
2022/04/19 03:08:19;;;;;;;24.58;22.58;;;2.60;99.90;;;;;;4986796;28;20042;-75
2022/04/19 03:10:46;;;;;;;23.98;22.05;;;2.60;99.90;;;;;;4990113;28;20049;-75
2022/04/19 03:13:12;;;;;;;25.85;23.42;;;2.70;99.90;;;;;;4991175;28;20046;-75
2022/04/19 03:15:40;;;;;;;23.85;21.73;;;2.60;99.90;;;;;;4989941;28;20046;-75
2022/04/19 03:18:07;;;;;;;23.63;21.58;;;2.50;99.90;;;;;;4990359;28;20057;-75
2022/04/19 03:20:35;;;;;;;24.00;21.92;;;2.50;99.90;;;;;;4989831;28;20060;-75
2022/04/19 03:28:47;;;;;;;23.77;21.75;;;2.30;99.90;;;;;;5013298;28;20037;-75
2022/04/19 03:31:15;;;;;;;24.10;22.20;;;2.30;99.90;;;;;;5022842;28;20061;-76
2022/04/19 03:33:43;;;;;;;24.52;22.33;;;2.30;99.90;;;;;;4993508;28;20696;-75
2022/04/19 03:36:10;;;;;;;25.55;23.23;;;2.50;99.90;;;;;;4985020;28;20125;-74
2022/04/19 03:38:37;;;;;;;23.85;21.77;;;2.70;99.90;;;;;;4989662;28;20046;-75
2022/04/19 03:41:04;;;;;;;24.20;22.27;;;2.80;99.90;;;;;;5005140;28;20096;-74
2022/04/19 03:43:32;;;;;;;22.90;21.20;;;2.60;99.90;;;;;;4973536;28;20570;-74
2022/04/19 03:45:59;;;;;;;24.95;22.75;;;2.50;99.90;;;;;;4989368;28;20082;-75
2022/04/19 03:48:28;;;;;;;24.17;22.15;;;2.70;99.90;;;;;;4988985;28;20057;-75
2022/04/19 03:50:54;;;;;;;25.20;22.95;;;2.80;99.90;;;;;;4972493;28;20042;-74
2022/04/19 03:53:21;;;;;;;24.70;22.65;;;2.60;99.90;;;;;;4990138;28;20101;-74
2022/04/19 03:55:48;;;;;;;23.92;21.98;;;2.50;99.90;;;;;;5005287;28;20235;-75
2022/04/19 03:58:15;;;;;;;24.42;22.27;;;2.30;99.90;;;;;;5013585;28;20050;-74
2022/04/19 04:00:42;;;;;;;24.70;22.70;;;2.40;99.90;;;;;;5004756;28;20084;-73
2022/04/19 04:03:09;;;;;;;24.92;22.77;;;2.30;99.90;;;;;;4987361;28;20105;-74
2022/04/19 04:05:35;;;;;;;25.02;23.02;;;2.30;99.90;;;;;;4986228;28;20042;-74
2022/04/19 04:08:02;;;;;;;24.70;22.40;;;2.30;99.90;;;;;;5006809;28;20289;-75
2022/04/19 04:10:37;;;;;;;25.15;22.95;;;2.20;99.90;;;;;;5001193;28;20106;-75
2022/04/19 04:13:04;;;;;;;24.92;22.75;;;2.30;99.90;;;;;;4989718;28;20145;-75
2022/04/19 04:15:34;;;;;;;27.20;25.08;;;2.20;99.90;;;;;;5005289;28;20085;-75
2022/04/19 04:18:02;;;;;;;24.05;21.95;;;2.20;99.90;;;;;;4973695;28;20125;-74
2022/04/19 04:20:30;;;;;;;25.35;22.95;;;2.10;99.90;;;;;;5004845;28;20052;-74
2022/04/19 04:22:57;;;;;;;24.48;22.52;;;2.10;99.90;;;;;;4989058;28;20053;-74
2022/04/19 04:25:24;;;;;;;25.40;22.98;;;2.10;99.90;;;;;;4988210;28;20111;-74
2022/04/19 04:27:51;;;;;;;25.42;23.30;;;2.10;99.90;;;;;;5012801;28;20707;-73
2022/04/19 04:30:20;;;;;;;24.73;22.60;;;2.00;99.90;;;;;;4989114;28;20045;-74
2022/04/19 04:32:55;;;;;;;24.15;22.08;;;2.00;99.90;;;;;;4984146;28;20157;-74
2022/04/19 04:35:22;;;;;;;25.70;23.48;;;2.00;99.90;;;;;;4988406;28;20187;-73
2022/04/19 04:37:50;;;;;;;27.27;25.00;;;1.90;99.90;;;;;;4986572;28;20108;-75
2022/04/19 04:40:18;;;;;;;27.65;25.35;;;1.90;99.90;;;;;;4970074;28;20838;-73
2022/04/19 04:43:05;;;;;;;26.13;24.17;;;2.00;99.90;;;;;;4997427;28;20058;-75
2022/04/19 04:45:32;;;;;;;27.33;24.98;;;2.00;99.90;;;;;;4988216;28;20049;-75
2022/04/19 04:50:45;;;;;;;28.90;26.60;;;2.20;99.90;;;;;;5021252;28;20061;-75
2022/04/19 04:53:12;;;;;;;26.42;24.33;;;2.10;99.90;;;;;;5010728;28;20103;-75
2022/04/19 04:55:44;;;;;;;26.17;23.88;;;2.00;99.90;;;;;;4986401;28;20129;-74
2022/04/19 04:58:20;;;;;;;25.90;23.90;;;2.00;99.90;;;;;;5011797;28;20498;-75
2022/04/19 05:00:47;;;;;;;27.77;25.40;;;2.10;99.90;;;;;;4986237;28;20052;-76
2022/04/19 05:03:14;;;;;;;26.80;24.27;;;2.10;99.90;;;;;;5003710;28;20046;-74
2022/04/19 05:05:41;;;;;;;27.48;24.92;;;2.10;99.90;;;;;;5005285;28;20038;-75
2022/04/19 05:08:12;;;;;;;26.02;24.02;;;2.20;99.90;;;;;;4995733;28;20049;-76
2022/04/19 05:10:39;;;;;;;27.25;25.20;;;2.20;99.90;;;;;;4990881;28;20049;-74
2022/04/19 05:13:12;;;;;;;27.77;25.58;;;2.20;99.90;;;;;;4988556;28;20050;-75
2022/04/19 05:15:40;;;;;;;28.25;25.75;;;2.30;99.90;;;;;;4988025;28;20060;-76
2022/04/19 05:18:07;;;;;;;27.95;25.50;;;2.30;99.90;;;;;;4972487;28;20081;-75
2022/04/19 05:20:35;;;;;;;26.67;24.60;;;2.40;99.90;;;;;;4987688;28;20816;-74
2022/04/19 05:23:02;;;;;;;26.95;24.88;;;2.40;99.90;;;;;;4987770;28;20053;-75
2022/04/19 05:25:28;;;;;;;27.30;25.00;;;2.50;99.90;;;;;;4987467;28;20048;-75
2022/04/19 05:27:55;;;;;;;27.90;25.48;;;2.50;99.90;;;;;;5011766;28;20357;-75
2022/04/19 05:30:22;;;;;;;27.25;25.15;;;2.60;99.90;;;;;;4987905;28;20034;-75
2022/04/19 05:32:49;;;;;;;27.40;25.20;;;2.70;99.90;;;;;;4987402;28;20477;-74
2022/04/19 05:35:16;;;;;;;28.42;26.15;;;2.70;99.90;;;;;;5002248;28;20085;-74
2022/04/19 05:37:43;;;;;;;28.05;25.75;;;2.80;99.90;;;;;;4994817;28;20042;-76
2022/04/19 05:40:10;;;;;;;29.30;26.75;;;2.80;99.90;;;;;;4988130;28;20541;-75
2022/04/19 05:42:37;;;;;;;28.70;26.35;;;2.90;99.90;;;;;;4986075;28;20054;-76
2022/04/19 05:45:05;;;;;;;28.95;26.40;;;3.00;99.90;;;;;;4986638;28;20502;-75
2022/04/19 05:47:33;;;;;;;28.42;26.20;;;3.00;99.90;;;;;;4984586;28;20092;-75
2022/04/19 05:50:00;;;;;;;29.02;26.70;;;3.10;99.90;;;;;;4994026;28;20116;-76
2022/04/19 05:52:27;;;;;;;30.98;28.05;;;3.10;99.90;;;;;;4986118;28;20054;-76
2022/04/19 05:54:54;;;;;;;29.95;27.45;;;3.20;99.90;;;;;;5003140;28;20306;-75
2022/04/19 05:57:21;;;;;;;30.08;27.33;;;3.30;99.90;;;;;;5007348;28;20052;-75
2022/04/19 05:59:48;;;;;;;31.73;28.85;;;3.30;99.90;;;;;;4991715;28;20061;-75
2022/04/19 06:05:00;;;;;;;30.67;28.08;;;3.60;99.90;;;;;;5001767;28;20038;-76
2022/04/19 06:07:30;;;;;;;30.58;28.00;;;3.70;99.90;;;;;;5002445;28;20050;-76
2022/04/19 06:10:06;;;;;;;28.85;26.35;;;3.80;99.90;;;;;;4987881;28;20049;-75
2022/04/19 06:12:34;;;;;;;28.58;25.98;;;4.00;99.90;;;;;;5002726;28;20072;-76
2022/04/19 06:15:02;;;;;;;28.98;26.67;;;4.10;99.90;;;;;;5003537;28;20061;-75
2022/04/19 06:17:32;;;;;;;30.20;27.55;;;4.20;99.90;;;;;;4970976;28;20049;-75
2022/04/19 06:20:07;;;;;;;32.03;29.20;;;4.30;99.90;;;;;;4987094;28;20045;-74
2022/04/19 06:22:34;;;;;;;31.02;28.23;;;4.60;99.90;;;;;;4987286;28;20050;-74
2022/04/19 06:25:06;;;;;;;30.60;27.50;;;4.80;99.90;;;;;;4997078;28;20068;-75
2022/04/19 06:27:33;;;;;;;29.83;27.13;;;4.80;99.90;;;;;;5007234;28;20048;-74
2022/04/19 06:30:04;;;;;;;30.42;27.83;;;5.00;99.90;;;;;;4996615;28;20798;-75
2022/04/19 06:32:31;;;;;;;30.50;28.00;;;5.10;99.90;;;;;;4991972;28;20045;-73
2022/04/19 06:34:58;;;;;;;30.75;27.60;;;5.30;99.90;;;;;;4988785;28;20046;-75
2022/04/19 06:37:26;;;;;;;30.08;27.25;;;5.40;99.90;;;;;;4994394;28;20073;-74
2022/04/19 06:40:13;;;;;;;31.20;27.83;;;5.70;99.90;;;;;;5014560;28;20058;-76
2022/04/19 06:42:42;;;;;;;30.38;27.95;;;6.00;99.90;;;;;;4985425;28;20058;-75
2022/04/19 06:45:18;;;;;;;32.22;29.73;;;6.60;99.90;;;;;;5002608;28;20295;-75
2022/04/19 06:48:01;;;;;;;32.20;29.70;;;7.20;99.90;;;;;;5001868;28;20153;-76
2022/04/19 06:50:32;;;;;;;30.83;28.25;;;7.80;99.90;;;;;;4996765;28;20049;-75
2022/04/19 06:53:06;;;;;;;29.95;27.60;;;8.50;99.90;;;;;;4986384;28;20061;-75
2022/04/19 06:55:48;;;;;;;29.88;27.52;;;9.30;99.90;;;;;;5002841;28;20046;-76
2022/04/19 06:58:14;;;;;;;30.27;27.60;;;10.10;99.90;;;;;;4986557;28;20074;-74
2022/04/19 07:00:41;;;;;;;29.55;27.35;;;10.90;99.90;;;;;;4984920;28;20068;-75
2022/04/19 07:03:08;;;;;;;29.60;27.30;;;11.30;99.90;;;;;;4997939;28;20548;-74
2022/04/19 07:05:58;;;;;;;29.58;27.40;;;11.80;99.90;;;;;;4968109;28;20058;-75
2022/04/19 07:08:25;;;;;;;28.88;26.75;;;12.30;99.90;;;;;;4993075;28;20705;-76
2022/04/19 07:10:52;;;;;;;27.88;25.83;;;12.70;99.90;;;;;;4987485;28;20216;-74
2022/04/19 07:13:45;;;;;;;27.75;25.85;;;12.90;99.90;;;;;;5004914;28;20089;-74
2022/04/19 07:16:27;;;;;;;27.75;25.65;;;12.30;99.90;;;;;;4987328;28;20050;-74
2022/04/19 07:18:54;;;;;;;27.55;25.65;;;12.10;99.90;;;;;;4972044;28;20050;-75
2022/04/19 07:26:37;;;;;;;27.87;26.17;;;12.30;99.90;;;;;;4988640;28;20503;-75
2022/04/19 07:27:13;;;;;;;29.30;27.38;;;12.10;99.90;;;;;;4989367;28;20304;-74
2022/04/19 07:29:40;;;;;;;30.23;28.17;;;11.60;99.90;;;;;;5005128;28;20061;-75
2022/04/19 07:32:08;;;;;;;29.95;27.75;;;11.90;99.90;;;;;;4971125;28;20046;-74
2022/04/19 07:34:53;;;;;;;28.55;26.75;;;12.20;99.90;;;;;;4988144;28;20050;-75
2022/04/19 07:37:20;;;;;;;27.92;26.00;;;12.00;99.90;;;;;;4987625;28;20129;-74
2022/04/19 07:39:48;;;;;;;30.40;28.15;;;12.10;99.90;;;;;;4989357;28;20050;-74
2022/04/19 07:42:14;;;;;;;29.15;27.35;;;12.10;99.90;;;;;;4987107;28;20159;-74
2022/04/19 07:44:44;;;;;;;29.17;27.17;;;12.20;99.90;;;;;;4988323;28;20045;-75
2022/04/19 07:47:14;;;;;;;28.38;26.80;;;12.60;99.90;;;;;;4987970;28;20104;-75
2022/04/19 07:49:41;;;;;;;27.63;25.92;;;13.00;99.90;;;;;;5004113;28;20054;-74
2022/04/19 07:52:09;;;;;;;28.35;26.65;;;13.00;99.90;;;;;;5011702;28;20076;-74
2022/04/19 07:54:36;;;;;;;28.52;26.83;;;13.00;99.90;;;;;;4988382;28;20058;-74
2022/04/19 07:57:04;;;;;;;28.05;26.35;;;12.70;99.90;;;;;;5007603;28;20088;-75
2022/04/19 07:59:31;;;;;;;27.63;25.90;;;12.60;99.90;;;;;;5009915;28;20054;-75
2022/04/19 08:01:58;;;;;;;28.55;26.75;;;12.50;99.90;;;;;;4987534;28;20311;-74
2022/04/19 08:04:25;;;;;;;28.05;26.33;;;12.20;99.90;;;;;;4988121;28;20056;-74
2022/04/19 08:06:53;;;;;;;28.70;27.02;;;12.90;99.90;;;;;;5004492;28;20049;-75
2022/04/19 08:09:20;;;;;;;29.40;27.70;;;13.50;99.90;;;;;;4987587;28;20073;-74
2022/04/19 08:11:50;;;;;;;30.35;28.55;;;13.10;99.90;;;;;;4987645;28;20356;-75
2022/04/19 08:14:16;;;;;;;28.88;26.98;;;13.10;99.90;;;;;;4987926;28;20037;-75
2022/04/19 08:16:44;;;;;;;29.30;27.27;;;13.10;99.90;;;;;;4987658;28;20038;-75
2022/04/19 08:19:11;;;;;;;27.63;26.02;;;13.20;99.90;;;;;;5002338;28;20322;-75
2022/04/19 08:21:37;;;;;;;29.08;27.08;;;13.60;99.90;;;;;;4987399;28;20495;-73
2022/04/19 08:24:05;;;;;;;28.92;26.92;;;13.50;99.90;;;;;;4988568;28;20084;-74
2022/04/19 08:26:32;;;;;;;29.67;27.80;;;13.10;99.90;;;;;;5007074;28;20038;-74
2022/04/19 08:28:59;;;;;;;28.73;26.85;;;13.00;99.90;;;;;;5008339;28;20053;-75
2022/04/19 08:31:27;;;;;;;27.88;26.27;;;13.70;99.90;;;;;;4988781;28;20152;-75
2022/04/19 08:33:54;;;;;;;30.17;28.08;;;13.50;99.90;;;;;;4993861;28;20120;-75
2022/04/19 08:36:23;;;;;;;28.58;26.63;;;13.00;99.90;;;;;;5002685;28;20053;-75
2022/04/19 08:38:50;;;;;;;28.00;26.30;;;13.00;99.90;;;;;;5004354;28;20050;-75
2022/04/19 08:41:21;;;;;;;28.52;26.63;;;13.60;99.90;;;;;;4986677;28;20049;-74
2022/04/19 08:43:52;;;;;;;28.85;27.08;;;13.50;99.90;;;;;;4988298;28;20100;-75
2022/04/19 08:46:19;;;;;;;29.55;27.70;;;13.80;99.90;;;;;;5004409;28;20053;-75
2022/04/19 08:48:47;;;;;;;30.33;28.42;;;14.00;99.90;;;;;;5003874;28;20034;-75
2022/04/19 08:51:18;;;;;;;30.70;28.55;;;13.50;99.90;;;;;;5002790;28;20411;-75
2022/04/19 08:59:26;;;;;;;29.02;26.92;;;13.40;99.90;;;;;;5003105;28;20109;-74
2022/04/19 09:01:52;;;;;;;28.98;27.13;;;13.50;99.90;;;;;;4986747;28;20057;-74
2022/04/19 09:04:22;;;;;;;28.10;26.30;;;13.00;99.90;;;;;;5007243;28;20080;-74
2022/04/19 09:06:56;;;;;;;26.23;24.73;;;13.20;99.90;;;;;;5004727;28;20061;-74
2022/04/19 09:09:24;;;;;;;27.85;26.08;;;13.40;99.90;;;;;;5005033;28;20477;-74
2022/04/19 09:11:53;;;;;;;28.02;26.20;;;13.70;99.90;;;;;;5005265;28;20171;-74
2022/04/19 09:14:24;;;;;;;29.88;28.08;;;13.60;99.90;;;;;;4987520;28;20049;-74
2022/04/19 09:17:03;;;;;;;28.83;26.92;;;13.80;99.90;;;;;;4987030;28;20046;-74
2022/04/19 09:19:30;;;;;;;29.02;27.05;;;13.70;99.90;;;;;;4985205;28;20061;-75
2022/04/19 09:21:57;;;;;;;30.63;28.17;;;14.00;99.90;;;;;;5004711;28;20050;-74
2022/04/19 09:24:25;;;;;;;30.23;28.42;;;14.30;99.90;;;;;;5005664;28;20096;-74
2022/04/19 09:26:52;;;;;;;30.30;28.20;;;13.50;99.90;;;;;;5006390;28;20372;-73
2022/04/19 09:29:24;;;;;;;30.67;28.80;;;13.00;99.90;;;;;;4993305;28;20057;-73
2022/04/19 09:31:57;;;;;;;30.02;28.00;;;13.00;99.90;;;;;;4994436;23;20059;-72
2022/04/19 09:34:37;;;;;;;31.25;29.27;;;13.00;99.90;;;;;;4958284;28;20058;-72
2022/04/19 09:37:08;;;;;;;31.48;29.50;;;13.10;99.90;;;;;;4974627;28;20054;-71
2022/04/19 09:39:37;;;;;;;32.65;30.55;;;12.90;99.90;;;;;;4959025;28;20156;-73
2022/04/19 09:42:14;;;;;;;31.92;29.83;;;12.80;99.90;;;;;;4958201;28;20133;-72
2022/04/19 09:44:50;;;;;;;32.35;30.25;;;13.20;99.90;;;;;;4978192;28;20054;-72
2022/04/19 09:47:17;;;;;;;31.38;29.23;;;13.60;99.90;;;;;;4960450;28;20078;-72
2022/04/19 09:49:44;;;;;;;30.15;28.33;;;13.40;99.90;;;;;;4955438;28;20085;-73
2022/04/19 09:52:20;;;;;;;29.08;27.27;;;13.60;99.90;;;;;;4949234;28;20046;-72
2022/04/19 09:55:06;;;;;;;28.90;27.20;;;13.90;99.90;;;;;;4960295;28;20377;-71
2022/04/19 09:57:38;;;;;;;28.13;26.58;;;14.10;99.90;;;;;;4973897;28;20038;-71
2022/04/19 10:00:13;;;;;;;27.90;26.30;;;14.30;99.90;;;;;;4976082;28;20127;-72
2022/04/19 10:08:19;;;;;;;28.98;27.38;;;14.10;99.90;;;;;;4973872;28;20046;-72
2022/04/19 10:10:49;;;;;;;27.50;26.00;;;13.60;99.90;;;;;;4955167;28;20042;-72
2022/04/19 10:13:23;;;;;;;28.30;26.80;;;13.40;99.90;;;;;;4989551;28;20058;-71
2022/04/19 10:15:50;;;;;;;27.57;26.07;;;13.60;99.90;;;;;;4975165;28;20363;-70
2022/04/19 10:18:17;;;;;;;28.13;26.63;;;13.60;99.90;;;;;;4977718;28;20058;-72
2022/04/19 10:20:58;;;;;;;27.10;25.50;;;13.80;99.90;;;;;;4972078;28;20054;-72
2022/04/19 10:23:35;;;;;;;28.42;26.67;;;13.50;99.90;;;;;;4973586;28;20050;-72
2022/04/19 10:26:20;;;;;;;26.98;25.52;;;13.80;99.90;;;;;;4976575;28;20311;-72
2022/04/19 10:28:52;;;;;;;27.45;26.05;;;14.00;99.90;;;;;;4973868;28;20049;-70
2022/04/19 10:31:31;;;;;;;27.70;26.08;;;13.90;99.90;;;;;;4964250;28;20357;-71
2022/04/19 10:34:03;;;;;;;26.50;24.67;;;14.20;99.90;;;;;;4972697;28;20046;-72
2022/04/19 10:36:33;;;;;;;26.80;25.30;;;13.60;99.90;;;;;;4974202;28;20057;-70
2022/04/19 10:39:11;;;;;;;27.30;25.70;;;14.00;99.90;;;;;;4975486;28;20096;-71
2022/04/19 10:41:57;;;;;;;28.77;27.17;;;14.10;99.90;;;;;;4958938;28;20057;-72
2022/04/19 10:44:45;;;;;;;;;;;13.70;99.90;;;;;;4943620;28;20146;-73
2022/04/19 10:47:14;;;;;;;27.70;26.10;;;14.10;99.90;;;;;;4974276;28;19964;-72
2022/04/19 10:49:48;;;;;;;29.13;27.52;;;14.60;99.90;;;;;;4964172;28;20286;-72
2022/04/19 10:52:36;;;;;;;29.70;28.00;;;14.80;99.90;;;;;;4959080;28;20213;-72
2022/04/19 10:55:08;;;;;;;28.77;27.15;;;14.10;99.90;;;;;;4961664;28;20141;-71
2022/04/19 10:58:18;;;;;;;28.50;26.70;;;13.70;99.90;;;;;;4975029;28;20049;-70
2022/04/19 11:00:55;;;;;;;28.83;27.25;;;14.20;99.90;;;;;;4998817;28;20134;-71
2022/04/19 11:03:39;;;;;;;28.45;26.85;;;14.70;99.90;;;;;;4985339;28;20046;-71
2022/04/19 11:06:28;;;;;;;28.13;26.52;;;14.70;99.90;;;;;;4979571;28;20046;-70
2022/04/19 11:09:21;;;;;;;29.27;27.58;;;14.30;99.90;;;;;;4961201;28;20122;-70
2022/04/19 11:11:53;;;;;;;29.17;27.38;;;14.30;99.90;;;;;;4979658;28;20054;-74
2022/04/19 11:14:41;;;;;;;30.10;28.50;;;14.40;99.90;;;;;;4979694;28;20085;-73
2022/04/19 11:17:21;;;;;;;29.23;27.63;;;14.20;99.90;;;;;;4978157;28;20082;-72
2022/04/19 11:20:06;;;;;;;29.65;27.98;;;14.30;99.90;;;;;;4962235;28;20696;-73
2022/04/19 11:22:54;;;;;;;31.58;29.85;;;14.10;99.90;;;;;;4976773;28;20113;-73
2022/04/19 11:25:42;;;;;;;30.70;29.10;;;13.90;99.90;;;;;;4973803;28;20418;-71
2022/04/19 11:28:11;;;;;;;31.58;29.60;;;14.50;99.50;;;;;;4963125;28;20073;-71
2022/04/19 11:30:56;;;;;;;31.65;30.05;;;14.40;99.30;;;;;;4974923;28;20050;-70
2022/04/19 11:33:29;;;;;;;30.35;28.75;;;14.50;98.70;;;;;;4977775;28;20841;-70
2022/04/19 11:36:00;;;;;;;30.15;28.45;;;14.50;99.60;;;;;;4983690;28;20046;-72
2022/04/19 11:38:29;;;;;;;30.75;29.20;;;14.10;98.60;;;;;;4977272;28;20065;-70
2022/04/19 11:46:46;;;;;;;29.85;28.13;;;15.10;99.90;;;;;;4977497;28;20046;-72
2022/04/19 11:49:16;;;;;;;31.48;29.63;;;14.80;98.40;;;;;;4983165;28;20049;-71
2022/04/19 11:51:46;;;;;;;29.17;27.58;;;14.60;96.40;;;;;;4969103;28;20055;-74
2022/04/19 11:54:21;;;;;;;28.92;27.33;;;14.40;97.90;;;;;;4970754;28;20046;-72
2022/04/19 11:57:06;;;;;;;29.23;27.63;;;14.80;97.00;;;;;;4976895;28;20057;-71
2022/04/19 11:59:41;;;;;;;29.67;28.13;;;14.50;95.90;;;;;;4976620;28;20054;-72
2022/04/19 12:02:19;;;;;;;31.85;30.17;;;14.50;96.50;;;;;;4977351;28;20050;-72
2022/04/19 12:04:54;;;;;;;32.40;30.63;;;14.90;96.30;;;;;;4976666;28;20046;-72
2022/04/19 12:07:23;;;;;;;30.83;29.23;;;14.70;96.70;;;;;;4975884;28;20053;-72
2022/04/19 12:09:51;;;;;;;30.48;28.58;;;14.80;96.60;;;;;;4959254;28;20097;-72
2022/04/19 12:12:19;;;;;;;30.85;29.25;;;14.30;95.70;;;;;;4977004;28;20053;-72
2022/04/19 12:14:52;;;;;;;30.92;29.13;;;14.40;96.70;;;;;;4976176;28;20338;-71
2022/04/19 12:17:24;;;;;;;32.55;30.83;;;14.40;95.40;;;;;;4941455;28;20134;-70
2022/04/19 12:20:01;;;;;;;31.92;30.13;;;14.30;95.70;;;;;;4956436;28;20826;-72
2022/04/19 12:22:32;;;;;;;31.95;30.25;;;14.40;94.80;;;;;;4932386;28;20106;-71
2022/04/19 12:24:58;;;;;;;31.63;30.02;;;14.30;95.70;;;;;;4956670;28;20106;-71
2022/04/19 12:27:30;;;;;;;30.80;29.20;;;14.80;95.90;;;;;;4973846;28;20034;-72
2022/04/19 12:30:11;;;;;;;31.52;29.83;;;15.20;96.50;;;;;;4976128;28;20050;-70
2022/04/19 12:32:53;;;;;;;32.13;30.35;;;15.30;95.20;;;;;;4958257;28;20082;-71
2022/04/19 12:35:37;;;;;;;31.58;29.77;;;15.00;94.70;;;;;;4973899;28;20042;-70
2022/04/19 12:38:16;;;;;;;30.90;29.27;;;15.10;95.70;;;;;;4959259;28;20054;-72
2022/04/19 12:40:44;;;;;;;30.50;28.80;;;15.30;95.80;;;;;;4959081;28;20054;-72
2022/04/19 12:43:14;;;;;;;28.73;27.20;;;15.10;95.80;;;;;;4974397;28;20062;-72
2022/04/19 12:45:41;;;;;;;30.20;28.60;;;15.20;96.10;;;;;;4959269;28;20050;-71
2022/04/19 12:48:22;;;;;;;30.83;29.02;;;14.90;95.10;;;;;;4977314;28;20721;-72
2022/04/19 12:51:00;;;;;;;30.23;28.42;;;14.50;95.50;;;;;;4974499;28;20178;-73
2022/04/19 12:53:26;;;;;;;30.15;28.35;;;14.70;96.90;;;;;;4955822;28;20131;-72
2022/04/19 12:55:53;;;;;;;30.02;28.10;;;14.30;96.10;;;;;;4973843;28;20811;-71
2022/04/19 12:58:20;;;;;;;32.78;30.88;;;14.50;96.40;;;;;;5032526;23;20206;-69
2022/04/19 13:00:47;;;;;;;32.70;30.77;;;13.90;96.80;;;;;;5016265;28;20119;-69
2022/04/19 13:03:16;;;;;;;32.45;30.63;;;14.00;96.80;;;;;;5025771;28;20076;-70
2022/04/19 13:14:00;;;;;;;35.28;33.38;;;14.30;96.30;;;;;;5016205;28;20050;-68
2022/04/19 13:16:30;;;;;;;33.22;31.25;;;14.00;96.70;;;;;;5014923;28;20052;-68
2022/04/19 13:18:57;;;;;;;34.20;32.08;;;13.90;97.50;;;;;;5014544;28;20215;-68
2022/04/19 13:21:26;;;;;;;32.63;30.40;;;13.90;98.40;;;;;;5010009;28;20073;-69
2022/04/19 13:24:02;;;;;;;35.28;32.90;;;14.20;97.40;;;;;;5010726;28;20118;-68
2022/04/19 13:26:31;;;;;;;33.47;31.00;;;14.30;98.00;;;;;;5014405;28;20042;-68
2022/04/19 13:29:02;;;;;;;32.65;30.55;;;14.40;97.60;;;;;;5014699;28;20091;-69
2022/04/19 13:31:29;;;;;;;33.10;31.20;;;14.10;97.60;;;;;;5014975;28;20041;-67